Box Elder, Montana
Current Conditions -  °F | °C
As of 4:53 PM on Friday 28 Nov 2014 (Local Time) from KHVR Reporting Station
Overcast Overcast  
Wind Chill: -11°   Ceiling: 1700
Heat Index:   Visibility: 10mi
Dew Point:   Wind: 16mph
Humidity: 77%   Direction: 300°WNW
Pressure: 29.62"   Gusts: 24mph
Location:  48.32°N, 110.01°W
Report Text: KHVR 282353Z AUTO 30014G21KT 10SM OVC017 M14/M17 A2962 RMK AO2 SNB46E49 SLP068 P0000 60000 T11391172 11022 21139 51015
Loading
Personal Weather Stations






























Interactive Weather Map New forecast layout! Learn more

10-Day Weather Forecast

Advertisements
Track Severe Weather on mobile